createdAt,value
2018-03-20T00:01:00.449Z,46.90
2018-03-20T00:03:29.710Z,46.10
2018-03-20T00:06:07.353Z,47.30
2018-03-20T00:08:36.946Z,46.10
2018-03-20T00:11:06.373Z,46.00
2018-03-20T00:13:35.897Z,46.40
2018-03-20T00:16:10.076Z,47.00
2018-03-20T00:18:39.835Z,46.90
2018-03-20T00:21:13.124Z,47.40
2018-03-20T00:23:43.086Z,47.60
2018-03-20T00:26:15.932Z,46.90
2018-03-20T00:28:45.578Z,46.00
2018-03-20T00:31:22.648Z,47.50
2018-03-20T00:33:52.225Z,48.00
2018-03-20T00:36:21.931Z,46.10
2018-03-20T00:38:53.836Z,45.40
2018-03-20T00:41:23.380Z,45.90
2018-03-20T00:43:53.764Z,46.00
2018-03-20T00:46:24.232Z,46.00
2018-03-20T00:48:53.810Z,45.90
2018-03-20T00:51:26.995Z,45.90
2018-03-20T00:53:56.934Z,46.20
2018-03-20T00:56:28.559Z,46.50
2018-03-20T00:58:58.278Z,45.90
2018-03-20T01:01:30.926Z,46.60
2018-03-20T01:04:00.651Z,46.10
2018-03-20T01:06:34.291Z,45.80
2018-03-20T01:09:06.137Z,45.80
2018-03-20T01:11:36.688Z,45.50
2018-03-20T01:14:06.974Z,45.50
2018-03-20T01:16:39.011Z,44.60
2018-03-20T01:19:08.888Z,44.80
2018-03-20T01:21:41.190Z,44.90
2018-03-20T01:24:11.121Z,45.20
2018-03-20T01:26:44.130Z,45.60
2018-03-20T01:29:14.448Z,45.60
2018-03-20T01:31:47.745Z,44.70
2018-03-20T01:34:18.225Z,44.60
2018-03-20T01:36:49.681Z,45.20
2018-03-20T01:39:19.938Z,43.80
2018-03-20T01:41:53.251Z,44.00
2018-03-20T01:44:23.703Z,44.00
2018-03-20T01:46:57.097Z,44.00
2018-03-20T01:49:26.932Z,44.40
2018-03-20T01:51:59.452Z,44.80
2018-03-20T01:54:30.406Z,44.60
2018-03-20T01:57:01.675Z,44.50
2018-03-20T01:59:31.534Z,44.40
2018-03-20T02:02:05.193Z,44.60
2018-03-20T02:04:35.303Z,45.80
2018-03-20T02:07:08.256Z,47.20
2018-03-20T02:09:38.819Z,47.70
2018-03-20T02:12:10.958Z,47.10
2018-03-20T02:14:42.035Z,47.60
2018-03-20T02:17:15.373Z,47.60
2018-03-20T02:19:45.375Z,47.60
2018-03-20T02:22:16.849Z,47.10
2018-03-20T02:24:47.409Z,46.50
2018-03-20T02:27:19.047Z,46.30
2018-03-20T02:29:50.202Z,46.30
2018-03-20T02:32:20.987Z,45.90
2018-03-20T02:34:51.071Z,46.40
2018-03-20T02:37:24.762Z,46.10
2018-03-20T02:39:55.329Z,45.40
2018-03-20T02:42:25.611Z,45.40
2018-03-20T02:44:55.423Z,45.20
2018-03-20T02:47:27.665Z,44.60
2018-03-20T02:49:58.554Z,44.30
2018-03-20T02:52:29.369Z,44.30
2018-03-20T02:55:01.724Z,44.10
2018-03-20T02:57:32.488Z,44.10
2018-03-20T03:00:02.486Z,44.10
2018-03-20T03:02:35.538Z,44.10
2018-03-20T03:05:06.305Z,44.90
2018-03-20T03:07:37.946Z,44.90
2018-03-20T03:10:09.388Z,45.30
2018-03-20T03:12:40.992Z,45.60
2018-03-20T03:15:11.390Z,45.50
2018-03-20T03:17:46.987Z,46.20
2018-03-20T03:20:17.814Z,46.20
2018-03-20T03:22:47.430Z,46.30
2018-03-20T03:25:17.588Z,46.40
2018-03-20T03:27:55.411Z,46.80
2018-03-20T03:30:25.234Z,47.10
2018-03-20T03:32:55.687Z,46.90
2018-03-20T03:35:25.916Z,47.90
2018-03-20T03:37:57.470Z,47.70
2018-03-20T03:40:27.388Z,47.50
2018-03-20T03:42:59.416Z,47.30
2018-03-20T03:45:29.324Z,47.20
2018-03-20T03:48:03.311Z,47.90
2018-03-20T03:50:33.837Z,49.00
2018-03-20T03:53:07.060Z,48.30
2018-03-20T03:55:37.088Z,47.60
2018-03-20T03:58:11.670Z,46.70
2018-03-20T04:00:42.031Z,48.00
2018-03-20T04:03:13.223Z,48.30
2018-03-20T04:05:43.585Z,48.10
2018-03-20T04:08:15.588Z,47.30
2018-03-20T04:10:46.251Z,49.00
2018-03-20T04:13:17.930Z,48.90
2018-03-20T04:15:47.996Z,47.80
2018-03-20T04:18:19.940Z,49.00
2018-03-20T04:20:50.583Z,48.90
2018-03-20T04:23:22.344Z,48.30
2018-03-20T04:25:53.213Z,47.70
2018-03-20T04:28:24.564Z,47.80
2018-03-20T04:30:54.671Z,48.50
2018-03-20T04:33:26.422Z,48.90
2018-03-20T04:35:56.434Z,47.50
2018-03-20T04:38:29.626Z,47.20
2018-03-20T04:40:59.996Z,47.00
2018-03-20T04:43:31.310Z,47.40
2018-03-20T04:46:01.220Z,47.00
2018-03-20T04:48:33.216Z,46.80
2018-03-20T04:51:04.075Z,49.00
2018-03-20T04:53:37.306Z,48.90
2018-03-20T04:56:07.139Z,47.60
2018-03-20T04:58:38.805Z,46.10
2018-03-20T05:01:09.036Z,46.70
2018-03-20T05:03:42.820Z,47.30
2018-03-20T05:06:12.492Z,48.40
2018-03-20T05:08:45.003Z,50.80
2018-03-20T05:11:14.288Z,50.80
2018-03-20T05:13:51.604Z,51.70
2018-03-20T05:16:21.703Z,51.50
2018-03-20T05:18:51.635Z,52.90
2018-03-20T05:21:21.582Z,51.60
2018-03-20T05:23:56.080Z,52.70
2018-03-20T05:26:26.073Z,52.60
2018-03-20T05:28:58.003Z,51.60
2018-03-20T05:31:28.324Z,51.90
2018-03-20T05:33:59.960Z,54.00
2018-03-20T05:36:29.850Z,53.30
2018-03-20T05:39:02.442Z,52.10
2018-03-20T05:41:32.390Z,52.10
2018-03-20T05:44:05.731Z,52.10
2018-03-20T05:46:36.299Z,53.10
2018-03-20T05:49:08.501Z,54.20
2018-03-20T05:51:38.345Z,53.80
2018-03-20T05:54:12.708Z,55.00
2018-03-20T05:56:42.556Z,55.10
2018-03-20T05:59:13.882Z,56.90
2018-03-20T06:01:43.802Z,56.20
2018-03-20T06:04:17.161Z,56.00
2018-03-20T06:06:47.521Z,57.30
2018-03-20T06:09:18.440Z,57.30
2018-03-20T06:11:48.294Z,57.60
2018-03-20T06:14:21.892Z,58.60
2018-03-20T06:16:51.683Z,57.90
2018-03-20T06:19:22.574Z,57.60
2018-03-20T06:21:53.161Z,58.00
2018-03-20T06:24:26.701Z,58.00
2018-03-20T06:26:57.383Z,58.20
2018-03-20T06:29:27.907Z,58.10
2018-03-20T06:31:57.534Z,58.70
2018-03-20T06:34:30.413Z,59.00
2018-03-20T06:36:59.971Z,59.80
2018-03-20T06:39:32.900Z,60.70
2018-03-20T06:42:02.775Z,62.20
2018-03-20T06:44:34.492Z,62.20
2018-03-20T06:47:04.158Z,63.60
2018-03-20T06:49:36.866Z,63.60
2018-03-20T06:52:06.457Z,64.50
2018-03-20T06:54:39.656Z,65.00
2018-03-20T06:57:09.510Z,66.70
2018-03-20T06:59:42.010Z,64.30
2018-03-20T07:02:11.507Z,64.20
2018-03-20T07:04:44.364Z,65.60
2018-03-20T07:07:14.710Z,65.70
2018-03-20T07:09:47.591Z,65.70
2018-03-20T07:12:17.160Z,66.30
2018-03-20T07:14:50.474Z,65.80
2018-03-20T07:17:21.185Z,66.30
2018-03-20T07:19:52.838Z,66.30
2018-03-20T07:22:22.611Z,67.90
2018-03-20T07:24:55.592Z,67.50
2018-03-20T07:27:25.255Z,66.30
2018-03-20T07:29:58.935Z,67.40
2018-03-20T07:32:28.807Z,67.90
2018-03-20T07:35:01.634Z,68.70
2018-03-20T07:37:31.479Z,69.10
2018-03-20T07:40:05.742Z,70.40
2018-03-20T07:42:35.224Z,69.60
2018-03-20T07:45:08.384Z,70.10
2018-03-20T07:47:38.680Z,70.70
2018-03-20T07:50:11.916Z,70.60
2018-03-20T07:52:41.510Z,70.80
2018-03-20T07:55:15.686Z,69.90
2018-03-20T07:57:46.517Z,69.90
2018-03-20T08:00:16.794Z,70.60
2018-03-20T08:02:46.158Z,70.60
2018-03-20T08:05:20.225Z,70.80
2018-03-20T08:07:49.664Z,70.70
2018-03-20T08:10:22.647Z,71.00
2018-03-20T08:12:53.455Z,69.90
2018-03-20T08:15:23.551Z,71.00
2018-03-20T08:17:53.159Z,71.20
2018-03-20T08:20:26.248Z,71.10
2018-03-20T08:25:27.353Z,71.20
2018-03-20T08:27:56.922Z,71.00
2018-03-20T08:30:30.119Z,71.10
2018-03-20T08:32:59.447Z,70.80
2018-03-20T08:35:33.619Z,70.40
2018-03-20T08:38:03.711Z,70.70
2018-03-20T08:40:35.393Z,70.60
2018-03-20T08:43:05.508Z,70.50
2018-03-20T08:45:37.903Z,70.90
2018-03-20T08:48:07.388Z,71.10
2018-03-20T08:50:40.092Z,71.20
2018-03-20T08:53:09.461Z,71.40
2018-03-20T08:55:46.804Z,71.50
2018-03-20T08:58:17.148Z,70.50
2018-03-20T09:00:46.969Z,70.80
2018-03-20T09:03:17.640Z,70.30
2018-03-20T09:05:50.286Z,70.30
2018-03-20T09:08:19.741Z,70.30
2018-03-20T09:10:52.894Z,70.50
2018-03-20T09:13:22.636Z,70.90
2018-03-20T09:15:55.659Z,71.20
2018-03-20T09:18:25.968Z,71.40
2018-03-20T09:21:03.219Z,71.40
2018-03-20T09:23:32.548Z,71.60
2018-03-20T09:26:02.318Z,69.60
2018-03-20T09:28:31.574Z,68.30
2018-03-20T09:31:05.146Z,68.00
2018-03-20T09:33:34.704Z,68.00
2018-03-20T09:36:11.717Z,66.80
2018-03-20T09:38:41.617Z,64.70
2018-03-20T09:41:12.271Z,62.80
2018-03-20T09:43:41.698Z,63.30
2018-03-20T09:46:13.633Z,63.80
2018-03-20T09:48:43.404Z,63.80
2018-03-20T09:51:16.012Z,64.70
2018-03-20T09:53:45.340Z,65.80
2018-03-20T09:56:18.345Z,66.40
2018-03-20T09:58:48.473Z,66.60
2018-03-20T10:01:25.370Z,66.50
2018-03-20T10:03:54.638Z,67.00
2018-03-20T10:06:23.941Z,67.20
2018-03-20T10:08:53.538Z,66.60
2018-03-20T10:11:25.446Z,70.00
2018-03-20T10:13:55.160Z,70.00
2018-03-20T10:16:27.809Z,65.90
2018-03-20T10:18:58.139Z,62.10
2018-03-20T10:21:29.663Z,62.00
2018-03-20T10:23:59.769Z,63.00
2018-03-20T10:26:32.213Z,62.90
2018-03-20T10:29:01.800Z,62.90
2018-03-20T10:31:35.241Z,60.70
2018-03-20T10:34:04.718Z,62.70
2018-03-20T10:36:37.651Z,57.40
2018-03-20T10:39:07.760Z,60.60
2018-03-20T10:41:41.278Z,56.20
2018-03-20T10:44:10.960Z,56.20
2018-03-20T10:46:42.507Z,55.80
2018-03-20T10:49:11.944Z,53.10
2018-03-20T10:51:45.841Z,54.20
2018-03-20T10:54:15.307Z,55.30
2018-03-20T10:56:48.106Z,53.90
2018-03-20T10:59:19.556Z,50.80
2018-03-20T11:01:55.690Z,49.20
2018-03-20T11:04:25.799Z,46.20
2018-03-20T11:06:55.555Z,46.20
2018-03-20T11:09:24.872Z,45.00
2018-03-20T11:11:57.946Z,45.10
2018-03-20T11:14:29.366Z,48.10
2018-03-20T11:17:00.220Z,48.00
2018-03-20T11:19:30.413Z,43.50
2018-03-20T11:22:09.332Z,43.40
2018-03-20T11:24:38.601Z,43.40
2018-03-20T11:27:07.947Z,45.70
2018-03-20T11:29:37.539Z,43.60
2018-03-20T11:32:10.267Z,43.00
2018-03-20T11:34:39.545Z,44.00
2018-03-20T11:37:13.524Z,39.50
2018-03-20T11:39:42.830Z,39.40
2018-03-20T11:42:15.567Z,38.70
2018-03-20T11:44:45.305Z,39.50
2018-03-20T11:47:18.162Z,40.00
2018-03-20T11:49:47.580Z,41.00
2018-03-20T11:52:20.484Z,36.60
2018-03-20T11:54:49.884Z,36.80
2018-03-20T11:57:21.254Z,39.20
2018-03-20T11:59:50.923Z,34.10
2018-03-20T12:04:54.775Z,37.60
2018-03-20T12:07:25.822Z,37.50
2018-03-20T12:10:02.781Z,33.90
2018-03-20T12:12:32.306Z,37.10
2018-03-20T12:15:01.628Z,38.40
2018-03-20T12:17:31.822Z,36.40
2018-03-20T12:20:01.527Z,36.40
2018-03-20T12:22:34.110Z,34.90
2018-03-20T12:25:03.482Z,36.70
2018-03-20T12:27:36.199Z,36.80
2018-03-20T12:30:05.577Z,38.30
2018-03-20T12:32:38.712Z,36.00
2018-03-20T12:35:10.945Z,33.20
2018-03-20T12:37:40.292Z,33.10
2018-03-20T12:40:09.549Z,33.00
2018-03-20T12:42:42.662Z,31.70
2018-03-20T12:45:11.927Z,35.10
2018-03-20T12:47:45.734Z,34.40
2018-03-20T12:50:15.334Z,34.50
2018-03-20T12:52:48.535Z,31.00
2018-03-20T12:55:17.846Z,30.50
2018-03-20T12:57:49.748Z,29.40
2018-03-20T13:00:19.125Z,29.40
2018-03-20T13:02:53.543Z,29.20
2018-03-20T13:05:23.227Z,30.10
2018-03-20T13:07:55.900Z,29.70
2018-03-20T13:10:25.751Z,30.00
2018-03-20T13:12:59.896Z,29.30
2018-03-20T13:15:29.363Z,27.20
2018-03-20T13:18:02.330Z,27.10
2018-03-20T13:20:32.674Z,27.20
2018-03-20T13:23:04.971Z,27.10
2018-03-20T13:25:34.261Z,26.90
2018-03-20T13:28:07.119Z,25.50
2018-03-20T13:30:37.303Z,27.30
2018-03-20T13:33:10.111Z,27.20
2018-03-20T13:35:40.293Z,27.10
2018-03-20T13:38:17.700Z,27.00
2018-03-20T13:40:46.995Z,27.10
2018-03-20T13:43:17.246Z,26.10
2018-03-20T13:45:47.576Z,27.50
2018-03-20T13:48:17.852Z,27.50
2018-03-20T13:53:22.870Z,26.70
2018-03-20T13:58:28.144Z,26.80
2018-03-20T14:00:57.413Z,27.90
2018-03-20T14:03:26.722Z,25.40
2018-03-20T14:05:56.748Z,26.20
2018-03-20T14:08:26.879Z,26.10
2018-03-20T14:10:56.644Z,27.50
2018-03-20T14:13:29.271Z,24.80
2018-03-20T14:15:58.760Z,25.50
2018-03-20T14:18:31.764Z,25.90
2018-03-20T14:21:01.105Z,25.20
2018-03-20T14:23:34.441Z,25.10
2018-03-20T14:26:10.838Z,25.10
2018-03-20T14:28:41.224Z,25.40
2018-03-20T14:31:10.540Z,25.40
2018-03-20T14:33:39.829Z,25.70
2018-03-20T14:36:09.096Z,26.40
2018-03-20T14:38:41.830Z,25.40
2018-03-20T14:41:11.525Z,27.10
2018-03-20T14:43:48.451Z,26.90
2018-03-20T14:46:18.671Z,26.60
2018-03-20T14:48:49.063Z,27.40
2018-03-20T14:51:18.411Z,27.40
2018-03-20T14:53:51.205Z,26.90
2018-03-20T14:56:21.106Z,25.40
2018-03-20T14:58:58.112Z,26.30
2018-03-20T15:01:27.628Z,27.30
2018-03-20T15:03:58.727Z,26.90
2018-03-20T15:06:28.810Z,28.60
2018-03-20T15:09:00.419Z,28.60
2018-03-20T15:11:29.873Z,26.80
2018-03-20T15:14:06.249Z,26.40
2018-03-20T15:16:36.513Z,26.70
2018-03-20T15:19:07.652Z,26.70
2018-03-20T15:21:36.878Z,26.90
2018-03-20T15:24:14.387Z,26.00
2018-03-20T15:26:43.675Z,26.30
2018-03-20T15:29:14.908Z,25.40
2018-03-20T15:31:44.669Z,25.50
2018-03-20T15:34:17.736Z,26.20
2018-03-20T15:36:47.251Z,26.70
2018-03-20T15:39:19.607Z,26.40
2018-03-20T15:41:49.254Z,26.40
2018-03-20T15:44:22.390Z,28.10
2018-03-20T15:46:51.852Z,26.70
2018-03-20T15:49:24.565Z,27.00
2018-03-20T15:51:54.004Z,27.40
2018-03-20T15:54:27.073Z,26.80
2018-03-20T15:56:57.629Z,26.60
2018-03-20T15:59:29.239Z,27.10
2018-03-20T16:01:58.500Z,27.00
2018-03-20T16:04:35.622Z,26.80
2018-03-20T16:07:04.971Z,26.60
2018-03-20T16:09:35.245Z,27.90
2018-03-20T16:14:42.693Z,27.90
2018-03-20T16:17:12.829Z,29.10
2018-03-20T16:19:42.117Z,29.10
2018-03-20T16:22:12.692Z,28.50
2018-03-20T16:24:41.980Z,28.50
2018-03-20T16:27:11.948Z,29.10
2018-03-20T16:29:45.616Z,30.30
2018-03-20T16:32:14.812Z,30.30
2018-03-20T16:34:45.851Z,29.50
2018-03-20T16:37:15.830Z,28.90
2018-03-20T16:39:48.217Z,28.70
2018-03-20T16:42:17.634Z,28.70
2018-03-20T16:44:51.014Z,29.30
2018-03-20T16:47:21.425Z,29.10
2018-03-20T16:49:58.162Z,29.00
2018-03-20T16:52:28.252Z,29.70
2018-03-20T16:54:57.538Z,30.10
2018-03-20T16:57:27.146Z,30.10
2018-03-20T17:00:00.118Z,29.40
2018-03-20T17:02:29.539Z,28.40
2018-03-20T17:05:06.942Z,28.90
2018-03-20T17:07:36.193Z,29.90
2018-03-20T17:10:06.424Z,28.20
2018-03-20T17:12:35.772Z,28.20
2018-03-20T17:15:12.407Z,28.20
2018-03-20T17:17:41.913Z,28.40
2018-03-20T17:20:12.272Z,29.40
2018-03-20T17:22:41.851Z,29.40
2018-03-20T17:25:15.569Z,29.80
2018-03-20T17:27:44.933Z,30.30
2018-03-20T17:30:17.828Z,30.60
2018-03-20T17:32:48.151Z,30.10
2018-03-20T17:35:20.877Z,30.10
2018-03-20T17:37:50.975Z,30.60
2018-03-20T17:40:22.426Z,30.60
2018-03-20T17:42:51.768Z,31.20
2018-03-20T17:45:33.950Z,31.60
2018-03-20T17:48:04.542Z,32.40
2018-03-20T17:50:34.142Z,32.40
2018-03-20T17:53:03.977Z,32.00
2018-03-20T17:55:33.592Z,32.40
2018-03-20T17:58:03.774Z,32.20
2018-03-20T18:00:34.187Z,33.10
2018-03-20T18:03:03.851Z,33.00
2018-03-20T18:05:35.675Z,34.00
2018-03-20T18:08:05.019Z,33.20
2018-03-20T18:10:36.379Z,33.70
2018-03-20T18:13:05.565Z,33.70
2018-03-20T18:15:38.373Z,34.50
2018-03-20T18:18:07.917Z,34.40
2018-03-20T18:20:41.138Z,34.20
2018-03-20T18:23:11.046Z,35.30
2018-03-20T18:25:45.451Z,34.00
2018-03-20T18:28:18.038Z,33.70
2018-03-20T18:30:47.255Z,33.70
2018-03-20T18:33:19.005Z,34.40
2018-03-20T18:35:49.408Z,34.40
2018-03-20T18:38:18.877Z,34.10
2018-03-20T18:40:52.146Z,34.00
2018-03-20T18:43:21.516Z,34.30
2018-03-20T18:45:58.060Z,33.20
2018-03-20T18:48:28.079Z,34.30
2018-03-20T18:50:58.166Z,34.50
2018-03-20T18:53:27.388Z,33.40
2018-03-20T18:56:00.943Z,33.50
2018-03-20T18:58:30.172Z,35.10
2018-03-20T19:01:04.156Z,34.20
2018-03-20T19:03:33.952Z,35.60
2018-03-20T19:06:07.611Z,34.70
2018-03-20T19:08:37.926Z,33.50
2018-03-20T19:11:10.638Z,34.10
2018-03-20T19:13:39.895Z,34.10
2018-03-20T19:16:13.239Z,35.20
2018-03-20T19:18:42.524Z,34.90
2018-03-20T19:21:15.243Z,35.00
2018-03-20T19:23:45.972Z,35.00
2018-03-20T19:26:17.817Z,35.30
2018-03-20T19:28:50.391Z,35.40
2018-03-20T19:31:22.735Z,36.50
2018-03-20T19:33:52.619Z,35.20
2018-03-20T19:36:22.739Z,34.90
2018-03-20T19:38:52.372Z,36.20
2018-03-20T19:41:25.465Z,34.90
2018-03-20T19:43:54.859Z,35.50
2018-03-20T19:46:31.827Z,35.20
2018-03-20T19:49:01.081Z,35.40
2018-03-20T19:51:30.823Z,35.00
2018-03-20T19:54:01.209Z,38.50
2018-03-20T19:56:31.450Z,36.20
2018-03-20T19:59:00.649Z,36.20
2018-03-20T20:01:33.298Z,36.20
2018-03-20T20:04:02.892Z,36.90
2018-03-20T20:06:39.397Z,36.10
2018-03-20T20:09:09.446Z,36.80
2018-03-20T20:11:38.795Z,37.30
2018-03-20T20:14:08.061Z,36.40
2018-03-20T20:16:40.686Z,35.50
2018-03-20T20:19:10.063Z,36.40
2018-03-20T20:21:43.317Z,36.70
2018-03-20T20:24:13.157Z,36.60
2018-03-20T20:26:49.976Z,37.00
2018-03-20T20:29:19.348Z,37.80
2018-03-20T20:31:49.105Z,37.10
2018-03-20T20:34:18.325Z,36.20
2018-03-20T20:36:55.749Z,37.00
2018-03-20T20:39:25.062Z,37.30
2018-03-20T20:41:54.466Z,37.30
2018-03-20T20:44:23.717Z,37.20
2018-03-20T20:46:59.312Z,38.70
2018-03-20T20:49:28.999Z,37.80
2018-03-20T20:52:02.355Z,37.90
2018-03-20T20:54:31.619Z,37.90
2018-03-20T20:57:09.194Z,38.60
2018-03-20T20:59:38.542Z,38.80
2018-03-20T21:02:09.041Z,38.00
2018-03-20T21:04:39.395Z,38.70
2018-03-20T21:07:15.871Z,38.60
2018-03-20T21:09:45.478Z,39.00
2018-03-20T21:12:16.731Z,40.30
2018-03-20T21:14:46.097Z,40.30
2018-03-20T21:17:18.880Z,40.30
2018-03-20T21:19:51.759Z,40.10
2018-03-20T21:22:21.118Z,41.40
2018-03-20T21:24:50.524Z,40.40
2018-03-20T21:27:23.281Z,41.60
2018-03-20T21:29:53.314Z,41.20
2018-03-20T21:32:24.719Z,41.20
2018-03-20T21:34:54.326Z,41.60
2018-03-20T21:37:28.138Z,42.50
2018-03-20T21:39:57.497Z,41.50
2018-03-20T21:42:31.686Z,41.60
2018-03-20T21:45:01.850Z,42.10
2018-03-20T21:47:33.175Z,42.10
2018-03-20T21:50:02.528Z,41.40
2018-03-20T21:52:37.095Z,41.50
2018-03-20T21:55:06.784Z,42.10
2018-03-20T21:57:40.343Z,41.90
2018-03-20T22:00:09.552Z,41.80
2018-03-20T22:02:46.484Z,42.10
2018-03-20T22:05:16.020Z,42.90
2018-03-20T22:07:47.221Z,43.50
2018-03-20T22:10:16.834Z,44.20
2018-03-20T22:12:50.280Z,43.90
2018-03-20T22:15:19.511Z,44.30
2018-03-20T22:17:53.196Z,44.50
2018-03-20T22:20:22.744Z,44.70
2018-03-20T22:22:55.819Z,45.20
2018-03-20T22:25:25.281Z,45.10
2018-03-20T22:27:58.503Z,45.10
2018-03-20T22:30:27.909Z,45.60
2018-03-20T22:33:04.896Z,45.90
2018-03-20T22:35:34.386Z,45.70
2018-03-20T22:38:04.851Z,46.00
2018-03-20T22:40:34.254Z,45.90
2018-03-20T22:43:07.613Z,46.20
2018-03-20T22:45:37.147Z,46.00
2018-03-20T22:48:13.687Z,46.00
2018-03-20T22:50:43.290Z,45.70
2018-03-20T22:53:16.121Z,46.10
2018-03-20T22:55:45.574Z,46.10
2018-03-20T22:58:18.905Z,46.20
2018-03-20T23:00:49.386Z,46.20
2018-03-20T23:03:19.662Z,46.50
2018-03-20T23:05:49.936Z,46.50
2018-03-20T23:08:25.447Z,46.80
2018-03-20T23:10:56.327Z,46.70
2018-03-20T23:13:26.367Z,46.80
2018-03-20T23:15:55.851Z,47.50
2018-03-20T23:18:26.317Z,48.00
2018-03-20T23:20:55.805Z,48.00
2018-03-20T23:26:02.403Z,48.10
2018-03-20T23:28:32.218Z,48.10
2018-03-20T23:31:02.212Z,48.00
2018-03-20T23:33:35.354Z,47.90
2018-03-20T23:36:05.589Z,49.00
2018-03-20T23:38:38.355Z,48.80
2018-03-20T23:41:07.877Z,48.80
2018-03-20T23:43:39.406Z,49.00
2018-03-20T23:46:09.294Z,49.00
2018-03-20T23:48:43.482Z,49.50
2018-03-20T23:51:13.095Z,49.90
2018-03-20T23:53:45.576Z,49.90
2018-03-20T23:56:15.228Z,50.40
2018-03-20T23:58:48.054Z,50.40
